sensor_id;sensor_type;location;lat;lon;timestamp;pressure;altitude;pressure_sealevel;temperature;humidity
81230;BME280;70701;44.452;18.652;2023-06-26T00:02:20;99088.41;;;19.28;76.46
81230;BME280;70701;44.452;18.652;2023-06-26T00:04:46;99084.06;;;19.33;76.89
81230;BME280;70701;44.452;18.652;2023-06-26T00:07:11;99079.72;;;19.32;76.92
81230;BME280;70701;44.452;18.652;2023-06-26T00:09:37;99078.66;;;19.29;77.01
81230;BME280;70701;44.452;18.652;2023-06-26T00:12:03;99078.66;;;19.29;77.11
81230;BME280;70701;44.452;18.652;2023-06-26T00:14:29;99077.09;;;19.28;76.95
81230;BME280;70701;44.452;18.652;2023-06-26T00:16:55;99082.00;;;19.28;77.20
81230;BME280;70701;44.452;18.652;2023-06-26T00:19:20;99083.25;;;19.27;77.63
81230;BME280;70701;44.452;18.652;2023-06-26T00:21:46;99075.34;;;19.31;77.42
81230;BME280;70701;44.452;18.652;2023-06-26T00:24:16;99083.22;;;19.47;76.07
81230;BME280;70701;44.452;18.652;2023-06-26T00:26:42;99081.72;;;19.52;76.10
81230;BME280;70701;44.452;18.652;2023-06-26T00:29:08;99078.84;;;19.46;76.15
81230;BME280;70701;44.452;18.652;2023-06-26T00:31:33;99080.88;;;19.46;76.15
81230;BME280;70701;44.452;18.652;2023-06-26T00:34:01;99083.00;;;19.51;76.23
81230;BME280;70701;44.452;18.652;2023-06-26T00:36:27;99093.81;;;19.52;76.69
81230;BME280;70701;44.452;18.652;2023-06-26T00:38:52;99074.88;;;19.58;76.22
81230;BME280;70701;44.452;18.652;2023-06-26T00:41:19;99077.47;;;19.62;75.84
81230;BME280;70701;44.452;18.652;2023-06-26T00:43:45;99074.03;;;19.52;75.86
81230;BME280;70701;44.452;18.652;2023-06-26T00:46:13;99078.34;;;19.48;75.83
81230;BME280;70701;44.452;18.652;2023-06-26T00:48:45;99077.09;;;19.49;75.70
81230;BME280;70701;44.452;18.652;2023-06-26T00:51:11;99064.94;;;19.42;74.91
81230;BME280;70701;44.452;18.652;2023-06-26T00:53:37;99065.53;;;19.26;75.70
81230;BME280;70701;44.452;18.652;2023-06-26T00:56:03;99063.28;;;19.30;75.49
81230;BME280;70701;44.452;18.652;2023-06-26T00:58:30;99069.00;;;19.15;75.88
81230;BME280;70701;44.452;18.652;2023-06-26T01:00:56;99070.25;;;19.14;75.40
81230;BME280;70701;44.452;18.652;2023-06-26T01:03:25;99076.06;;;19.05;76.05
81230;BME280;70701;44.452;18.652;2023-06-26T01:05:59;99073.81;;;19.09;77.05
81230;BME280;70701;44.452;18.652;2023-06-26T01:08:24;99074.44;;;18.98;77.07
81230;BME280;70701;44.452;18.652;2023-06-26T01:10:51;99072.19;;;19.02;76.96
81230;BME280;70701;44.452;18.652;2023-06-26T01:13:17;99069.13;;;18.86;77.06
81230;BME280;70701;44.452;18.652;2023-06-26T01:15:43;99070.81;;;18.77;77.30
81230;BME280;70701;44.452;18.652;2023-06-26T01:18:08;99066.81;;;18.84;77.61
81230;BME280;70701;44.452;18.652;2023-06-26T01:20:36;99062.44;;;19.03;77.01
81230;BME280;70701;44.452;18.652;2023-06-26T01:23:07;99058.47;;;18.95;76.99
81230;BME280;70701;44.452;18.652;2023-06-26T01:28:19;99065.69;;;18.96;76.29
81230;BME280;70701;44.452;18.652;2023-06-26T01:30:46;99059.19;;;19.11;76.13
81230;BME280;70701;44.452;18.652;2023-06-26T01:33:13;99049.16;;;19.10;76.42
81230;BME280;70701;44.452;18.652;2023-06-26T01:35:39;99062.88;;;19.17;76.51
81230;BME280;70701;44.452;18.652;2023-06-26T01:38:21;99063.13;;;19.19;76.13
81230;BME280;70701;44.452;18.652;2023-06-26T01:40:52;99068.28;;;19.20;76.07
81230;BME280;70701;44.452;18.652;2023-06-26T01:45:51;99058.03;;;19.23;77.18
81230;BME280;70701;44.452;18.652;2023-06-26T01:48:20;99060.47;;;19.10;77.81
81230;BME280;70701;44.452;18.652;2023-06-26T01:50:51;99056.22;;;18.99;78.39
81230;BME280;70701;44.452;18.652;2023-06-26T01:53:19;99061.31;;;18.95;78.65
81230;BME280;70701;44.452;18.652;2023-06-26T01:55:53;99062.03;;;18.90;78.91
81230;BME280;70701;44.452;18.652;2023-06-26T01:58:22;99054.63;;;18.93;79.00
81230;BME280;70701;44.452;18.652;2023-06-26T02:00:49;99050.81;;;18.96;78.51
81230;BME280;70701;44.452;18.652;2023-06-26T02:03:15;99049.38;;;19.06;77.74
81230;BME280;70701;44.452;18.652;2023-06-26T02:05:40;99048.25;;;19.18;77.11
81230;BME280;70701;44.452;18.652;2023-06-26T02:08:08;99054.59;;;19.13;77.49
81230;BME280;70701;44.452;18.652;2023-06-26T02:10:34;99045.59;;;19.09;77.26
81230;BME280;70701;44.452;18.652;2023-06-26T02:13:00;99045.16;;;18.96;77.08
81230;BME280;70701;44.452;18.652;2023-06-26T02:15:26;99033.22;;;18.86;76.59
81230;BME280;70701;44.452;18.652;2023-06-26T02:17:53;99040.38;;;18.67;77.09
81230;BME280;70701;44.452;18.652;2023-06-26T02:20:19;99035.97;;;18.80;76.50
81230;BME280;70701;44.452;18.652;2023-06-26T02:22:45;99036.06;;;18.71;76.82
81230;BME280;70701;44.452;18.652;2023-06-26T02:25:10;99039.69;;;18.72;76.18
81230;BME280;70701;44.452;18.652;2023-06-26T02:27:38;99035.88;;;18.75;76.14
81230;BME280;70701;44.452;18.652;2023-06-26T02:30:04;99034.41;;;18.79;76.14
81230;BME280;70701;44.452;18.652;2023-06-26T02:32:30;99032.66;;;18.82;76.13
81230;BME280;70701;44.452;18.652;2023-06-26T02:34:55;99030.38;;;18.65;76.72
81230;BME280;70701;44.452;18.652;2023-06-26T02:37:21;99032.63;;;18.61;77.42
81230;BME280;70701;44.452;18.652;2023-06-26T02:39:47;99040.94;;;18.50;78.00
81230;BME280;70701;44.452;18.652;2023-06-26T02:42:13;99034.72;;;18.46;78.29
81230;BME280;70701;44.452;18.652;2023-06-26T02:44:40;99030.38;;;18.45;78.38
81230;BME280;70701;44.452;18.652;2023-06-26T02:47:06;99035.38;;;18.56;78.91
81230;BME280;70701;44.452;18.652;2023-06-26T02:49:33;99040.47;;;18.72;78.68
81230;BME280;70701;44.452;18.652;2023-06-26T02:51:59;99036.06;;;18.71;78.10
81230;BME280;70701;44.452;18.652;2023-06-26T02:54:28;99040.94;;;18.71;78.23
81230;BME280;70701;44.452;18.652;2023-06-26T02:56:59;99042.44;;;18.66;78.74
81230;BME280;70701;44.452;18.652;2023-06-26T02:59:28;99043.91;;;18.61;78.68
81230;BME280;70701;44.452;18.652;2023-06-26T03:01:54;99038.66;;;18.54;78.71
81230;BME280;70701;44.452;18.652;2023-06-26T03:04:26;99051.72;;;18.52;78.81
81230;BME280;70701;44.452;18.652;2023-06-26T03:06:53;99046.78;;;18.46;78.76
81230;BME280;70701;44.452;18.652;2023-06-26T03:09:19;99045.16;;;18.40;79.01
81230;BME280;70701;44.452;18.652;2023-06-26T03:11:45;99035.41;;;18.41;78.69
81230;BME280;70701;44.452;18.652;2023-06-26T03:14:11;99046.13;;;18.37;79.15
81230;BME280;70701;44.452;18.652;2023-06-26T03:16:37;99041.84;;;18.41;78.51
81230;BME280;70701;44.452;18.652;2023-06-26T03:19:03;99042.91;;;18.44;78.79
81230;BME280;70701;44.452;18.652;2023-06-26T03:21:33;99050.59;;;18.43;78.68
81230;BME280;70701;44.452;18.652;2023-06-26T03:23:59;99046.50;;;18.44;79.12
81230;BME280;70701;44.452;18.652;2023-06-26T03:26:25;99044.16;;;18.43;79.21
81230;BME280;70701;44.452;18.652;2023-06-26T03:28:54;99046.22;;;18.42;79.18
81230;BME280;70701;44.452;18.652;2023-06-26T03:31:20;99048.41;;;18.53;78.96
81230;BME280;70701;44.452;18.652;2023-06-26T03:33:47;99045.47;;;18.62;78.47
81230;BME280;70701;44.452;18.652;2023-06-26T03:36:13;99047.59;;;18.68;79.02
81230;BME280;70701;44.452;18.652;2023-06-26T03:38:40;99046.34;;;18.89;76.61
81230;BME280;70701;44.452;18.652;2023-06-26T03:41:07;99056.75;;;18.62;77.20
81230;BME280;70701;44.452;18.652;2023-06-26T03:43:32;99047.72;;;18.58;76.78
81230;BME280;70701;44.452;18.652;2023-06-26T03:46:12;99056.53;;;18.81;76.45
81230;BME280;70701;44.452;18.652;2023-06-26T03:48:39;99050.22;;;18.92;76.34
81230;BME280;70701;44.452;18.652;2023-06-26T03:51:06;99059.63;;;18.83;77.78
81230;BME280;70701;44.452;18.652;2023-06-26T03:53:33;99060.28;;;18.78;78.07
81230;BME280;70701;44.452;18.652;2023-06-26T03:55:59;99053.00;;;18.71;76.96
81230;BME280;70701;44.452;18.652;2023-06-26T03:58:25;99054.53;;;18.52;77.92
81230;BME280;70701;44.452;18.652;2023-06-26T04:00:51;99068.53;;;18.61;76.88
81230;BME280;70701;44.452;18.652;2023-06-26T04:03:17;99064.94;;;18.60;77.22
81230;BME280;70701;44.452;18.652;2023-06-26T04:05:42;99065.47;;;18.44;78.22
81230;BME280;70701;44.452;18.652;2023-06-26T04:08:08;99066.41;;;18.56;77.05
81230;BME280;70701;44.452;18.652;2023-06-26T04:10:34;99065.34;;;18.53;77.26
81230;BME280;70701;44.452;18.652;2023-06-26T04:13:01;99073.59;;;18.57;77.15
81230;BME280;70701;44.452;18.652;2023-06-26T04:15:27;99063.91;;;18.43;77.76
81230;BME280;70701;44.452;18.652;2023-06-26T04:17:53;99071.13;;;18.29;78.37
81230;BME280;70701;44.452;18.652;2023-06-26T04:20:19;99072.31;;;18.58;77.40
81230;BME280;70701;44.452;18.652;2023-06-26T04:22:44;99078.78;;;18.79;76.63
81230;BME280;70701;44.452;18.652;2023-06-26T04:25:10;99067.19;;;18.56;76.90
81230;BME280;70701;44.452;18.652;2023-06-26T04:27:37;99073.94;;;18.44;78.00
81230;BME280;70701;44.452;18.652;2023-06-26T04:30:03;99082.78;;;18.72;77.14
81230;BME280;70701;44.452;18.652;2023-06-26T04:32:30;99074.66;;;18.59;78.23
81230;BME280;70701;44.452;18.652;2023-06-26T04:34:56;99076.59;;;18.68;77.83
81230;BME280;70701;44.452;18.652;2023-06-26T04:37:22;99071.69;;;19.04;76.15
81230;BME280;70701;44.452;18.652;2023-06-26T04:39:48;99081.47;;;19.29;75.37
81230;BME280;70701;44.452;18.652;2023-06-26T04:42:13;99082.72;;;19.49;75.13
81230;BME280;70701;44.452;18.652;2023-06-26T04:44:39;99071.81;;;19.62;74.47
81230;BME280;70701;44.452;18.652;2023-06-26T04:47:07;99080.63;;;19.70;74.37
81230;BME280;70701;44.452;18.652;2023-06-26T04:49:33;99081.75;;;19.78;75.70
81230;BME280;70701;44.452;18.652;2023-06-26T04:51:59;99084.81;;;19.74;75.37
81230;BME280;70701;44.452;18.652;2023-06-26T04:54:28;99070.25;;;19.61;75.89
81230;BME280;70701;44.452;18.652;2023-06-26T04:56:54;99065.56;;;19.52;76.01
81230;BME280;70701;44.452;18.652;2023-06-26T04:59:20;99073.81;;;19.56;76.31
81230;BME280;70701;44.452;18.652;2023-06-26T05:01:45;99076.19;;;19.63;76.23
81230;BME280;70701;44.452;18.652;2023-06-26T05:04:14;99076.91;;;19.58;76.30
81230;BME280;70701;44.452;18.652;2023-06-26T05:06:40;99073.13;;;19.40;76.78
81230;BME280;70701;44.452;18.652;2023-06-26T05:09:07;99073.13;;;19.40;76.90
81230;BME280;70701;44.452;18.652;2023-06-26T05:11:33;99070.88;;;19.45;76.57
81230;BME280;70701;44.452;18.652;2023-06-26T05:13:58;99079.97;;;19.54;76.48
81230;BME280;70701;44.452;18.652;2023-06-26T05:16:24;99083.13;;;19.62;76.69
81230;BME280;70701;44.452;18.652;2023-06-26T05:18:49;99093.94;;;19.64;76.75
81230;BME280;70701;44.452;18.652;2023-06-26T05:21:16;99089.41;;;19.98;75.68
81230;BME280;70701;44.452;18.652;2023-06-26T05:23:42;99078.28;;;20.20;74.75
81230;BME280;70701;44.452;18.652;2023-06-26T05:26:10;99085.00;;;20.29;74.46
81230;BME280;70701;44.452;18.652;2023-06-26T05:28:37;99076.34;;;20.38;74.20
81230;BME280;70701;44.452;18.652;2023-06-26T05:31:03;99083.88;;;20.47;73.42
81230;BME280;70701;44.452;18.652;2023-06-26T05:33:30;99084.69;;;20.58;73.83
81230;BME280;70701;44.452;18.652;2023-06-26T05:35:56;99082.16;;;20.61;73.22
81230;BME280;70701;44.452;18.652;2023-06-26T05:38:25;99085.81;;;20.67;73.40
81230;BME280;70701;44.452;18.652;2023-06-26T05:40:51;99076.53;;;20.66;73.18
81230;BME280;70701;44.452;18.652;2023-06-26T05:43:17;99085.41;;;20.85;72.71
81230;BME280;70701;44.452;18.652;2023-06-26T05:45:48;99090.81;;;20.89;72.08
81230;BME280;70701;44.452;18.652;2023-06-26T05:48:14;99088.38;;;21.13;71.19
81230;BME280;70701;44.452;18.652;2023-06-26T05:50:40;99089.19;;;21.20;70.81
81230;BME280;70701;44.452;18.652;2023-06-26T05:53:07;99092.56;;;21.29;70.33
81230;BME280;70701;44.452;18.652;2023-06-26T05:55:33;99089.44;;;21.22;70.67
81230;BME280;70701;44.452;18.652;2023-06-26T05:57:59;99090.63;;;21.04;71.66
81230;BME280;70701;44.452;18.652;2023-06-26T06:00:27;99092.19;;;20.99;71.46
81230;BME280;70701;44.452;18.652;2023-06-26T06:02:53;99093.66;;;20.89;72.86
81230;BME280;70701;44.452;18.652;2023-06-26T06:05:20;99096.66;;;20.74;74.02
81230;BME280;70701;44.452;18.652;2023-06-26T06:07:47;99087.06;;;20.60;74.25
81230;BME280;70701;44.452;18.652;2023-06-26T06:10:12;99094.84;;;20.71;74.84
81230;BME280;70701;44.452;18.652;2023-06-26T06:12:38;99098.78;;;20.85;74.42
81230;BME280;70701;44.452;18.652;2023-06-26T06:15:04;99089.84;;;20.97;73.27
81230;BME280;70701;44.452;18.652;2023-06-26T06:17:30;99094.84;;;21.25;71.85
81230;BME280;70701;44.452;18.652;2023-06-26T06:19:56;99095.16;;;21.39;70.76
81230;BME280;70701;44.452;18.652;2023-06-26T06:22:22;99100.78;;;21.27;70.09
81230;BME280;70701;44.452;18.652;2023-06-26T06:24:49;99095.13;;;21.27;70.28
81230;BME280;70701;44.452;18.652;2023-06-26T06:27:16;99082.78;;;21.30;70.83
81230;BME280;70701;44.452;18.652;2023-06-26T06:29:41;99090.75;;;21.38;70.23
81230;BME280;70701;44.452;18.652;2023-06-26T06:32:07;99095.91;;;21.33;70.37
81230;BME280;70701;44.452;18.652;2023-06-26T06:34:33;99095.91;;;21.33;70.79
81230;BME280;70701;44.452;18.652;2023-06-26T06:36:59;99095.38;;;21.24;70.73
81230;BME280;70701;44.452;18.652;2023-06-26T06:39:25;99089.91;;;21.14;70.69
81230;BME280;70701;44.452;18.652;2023-06-26T06:41:51;99082.69;;;21.08;70.66
81230;BME280;70701;44.452;18.652;2023-06-26T06:44:16;99087.59;;;21.13;69.81
81230;BME280;70701;44.452;18.652;2023-06-26T06:46:42;99089.97;;;21.26;69.58
81230;BME280;70701;44.452;18.652;2023-06-26T06:49:08;99090.47;;;21.30;69.61
81230;BME280;70701;44.452;18.652;2023-06-26T06:51:37;99084.56;;;21.33;69.55
81230;BME280;70701;44.452;18.652;2023-06-26T06:54:03;99085.63;;;21.36;69.95
81230;BME280;70701;44.452;18.652;2023-06-26T06:56:29;99084.66;;;21.56;67.95
81230;BME280;70701;44.452;18.652;2023-06-26T06:58:54;99085.91;;;21.38;68.94
81230;BME280;70701;44.452;18.652;2023-06-26T07:01:20;99080.22;;;21.38;68.50
81230;BME280;70701;44.452;18.652;2023-06-26T07:03:46;99072.75;;;21.35;67.74
81230;BME280;70701;44.452;18.652;2023-06-26T07:06:11;99079.25;;;21.58;68.89
81230;BME280;70701;44.452;18.652;2023-06-26T07:08:37;99076.44;;;21.64;69.24
81230;BME280;70701;44.452;18.652;2023-06-26T07:11:03;99077.66;;;21.40;69.27
81230;BME280;70701;44.452;18.652;2023-06-26T07:13:28;99080.03;;;21.47;69.05
81230;BME280;70701;44.452;18.652;2023-06-26T07:15:54;99082.47;;;21.23;70.57
81230;BME280;70701;44.452;18.652;2023-06-26T07:18:20;99075.63;;;21.46;68.49
81230;BME280;70701;44.452;18.652;2023-06-26T07:20:45;99069.91;;;21.35;69.63
81230;BME280;70701;44.452;18.652;2023-06-26T07:23:11;99074.38;;;21.53;69.87
81230;BME280;70701;44.452;18.652;2023-06-26T07:25:37;99068.91;;;21.38;68.06
81230;BME280;70701;44.452;18.652;2023-06-26T07:28:02;99065.53;;;21.40;68.74
81230;BME280;70701;44.452;18.652;2023-06-26T07:30:28;99063.97;;;21.33;68.91
81230;BME280;70701;44.452;18.652;2023-06-26T07:32:54;99076.44;;;21.64;66.66
81230;BME280;70701;44.452;18.652;2023-06-26T07:35:19;99073.59;;;21.64;67.42
81230;BME280;70701;44.452;18.652;2023-06-26T07:37:45;99081.13;;;21.84;67.77
81230;BME280;70701;44.452;18.652;2023-06-26T07:40:11;99075.72;;;21.97;67.14
81230;BME280;70701;44.452;18.652;2023-06-26T07:42:38;99074.09;;;21.62;69.14
81230;BME280;70701;44.452;18.652;2023-06-26T07:45:05;99070.56;;;22.01;66.62
81230;BME280;70701;44.452;18.652;2023-06-26T07:47:36;99064.34;;;21.69;68.39
81230;BME280;70701;44.452;18.652;2023-06-26T07:50:03;99063.09;;;21.92;67.02
81230;BME280;70701;44.452;18.652;2023-06-26T07:52:28;99072.38;;;22.16;67.32
81230;BME280;70701;44.452;18.652;2023-06-26T07:54:56;99077.53;;;22.06;66.23
81230;BME280;70701;44.452;18.652;2023-06-26T07:57:22;99074.69;;;21.78;68.51
81230;BME280;70701;44.452;18.652;2023-06-26T07:59:48;99077.50;;;21.72;69.07
81230;BME280;70701;44.452;18.652;2023-06-26T08:02:14;99069.28;;;21.91;67.79
81230;BME280;70701;44.452;18.652;2023-06-26T08:04:39;99081.13;;;22.12;67.13
81230;BME280;70701;44.452;18.652;2023-06-26T08:07:05;99074.69;;;22.06;66.76
81230;BME280;70701;44.452;18.652;2023-06-26T08:09:31;99077.81;;;22.30;67.36
81230;BME280;70701;44.452;18.652;2023-06-26T08:11:58;99073.13;;;22.39;66.59
81230;BME280;70701;44.452;18.652;2023-06-26T08:14:24;99086.03;;;22.23;67.25
81230;BME280;70701;44.452;18.652;2023-06-26T08:16:50;99080.88;;;22.38;66.88
81230;BME280;70701;44.452;18.652;2023-06-26T08:19:16;99079.84;;;22.02;67.69
81230;BME280;70701;44.452;18.652;2023-06-26T08:21:43;99079.56;;;22.17;66.83
81230;BME280;70701;44.452;18.652;2023-06-26T08:24:10;99074.69;;;21.83;68.62
81230;BME280;70701;44.452;18.652;2023-06-26T08:26:36;99073.63;;;22.03;68.39
81230;BME280;70701;44.452;18.652;2023-06-26T08:29:02;99083.19;;;22.06;68.90
81230;BME280;70701;44.452;18.652;2023-06-26T08:31:37;99085.53;;;22.13;68.54
81230;BME280;70701;44.452;18.652;2023-06-26T08:34:04;99078.28;;;22.23;67.53
81230;BME280;70701;44.452;18.652;2023-06-26T08:36:30;99080.09;;;22.60;66.92
81230;BME280;70701;44.452;18.652;2023-06-26T08:38:56;99076.13;;;22.91;66.28
81230;BME280;70701;44.452;18.652;2023-06-26T08:41:22;99080.22;;;23.02;64.14
81230;BME280;70701;44.452;18.652;2023-06-26T08:43:49;99081.72;;;23.20;63.12
81230;BME280;70701;44.452;18.652;2023-06-26T08:46:16;99081.50;;;23.12;63.78
81230;BME280;70701;44.452;18.652;2023-06-26T08:48:54;99073.50;;;23.16;64.08
81230;BME280;70701;44.452;18.652;2023-06-26T08:51:21;99073.72;;;23.24;63.76
81230;BME280;70701;44.452;18.652;2023-06-26T08:53:54;99072.81;;;23.46;63.43
81230;BME280;70701;44.452;18.652;2023-06-26T08:56:22;99069.94;;;23.52;62.23
81230;BME280;70701;44.452;18.652;2023-06-26T08:58:49;99060.47;;;23.79;62.79
81230;BME280;70701;44.452;18.652;2023-06-26T09:01:15;99057.41;;;23.72;61.13
81230;BME280;70701;44.452;18.652;2023-06-26T09:03:42;99062.03;;;23.33;62.94
81230;BME280;70701;44.452;18.652;2023-06-26T09:06:07;99067.41;;;23.42;63.36
81230;BME280;70701;44.452;18.652;2023-06-26T09:08:34;99062.88;;;23.64;62.66
81230;BME280;70701;44.452;18.652;2023-06-26T09:11:00;99057.63;;;23.79;60.95
81230;BME280;70701;44.452;18.652;2023-06-26T09:13:26;99051.13;;;23.84;60.96
81230;BME280;70701;44.452;18.652;2023-06-26T09:15:55;99054.25;;;23.81;60.02
81230;BME280;70701;44.452;18.652;2023-06-26T09:18:21;99053.22;;;23.78;60.67
81230;BME280;70701;44.452;18.652;2023-06-26T09:20:48;99049.34;;;24.12;58.74
81230;BME280;70701;44.452;18.652;2023-06-26T09:23:13;99046.31;;;24.04;59.01
81230;BME280;70701;44.452;18.652;2023-06-26T09:25:40;99041.84;;;23.84;60.05
81230;BME280;70701;44.452;18.652;2023-06-26T09:28:06;99051.03;;;23.60;60.25
81230;BME280;70701;44.452;18.652;2023-06-26T09:30:35;99044.38;;;23.46;61.14
81230;BME280;70701;44.452;18.652;2023-06-26T09:33:18;99042.63;;;23.37;62.09
81230;BME280;70701;44.452;18.652;2023-06-26T09:35:45;99041.50;;;23.52;61.35
81230;BME280;70701;44.452;18.652;2023-06-26T09:38:14;99047.03;;;23.80;61.05
81230;BME280;70701;44.452;18.652;2023-06-26T09:40:46;99046.00;;;23.77;60.39
81230;BME280;70701;44.452;18.652;2023-06-26T09:43:13;99050.34;;;23.90;59.51
81230;BME280;70701;44.452;18.652;2023-06-26T09:45:40;99038.75;;;24.12;60.26
81230;BME280;70701;44.452;18.652;2023-06-26T09:48:06;99044.06;;;24.27;59.15
81230;BME280;70701;44.452;18.652;2023-06-26T09:50:41;99038.59;;;24.29;59.26
81230;BME280;70701;44.452;18.652;2023-06-26T09:53:11;99039.44;;;24.24;58.52
81230;BME280;70701;44.452;18.652;2023-06-26T09:55:39;99040.63;;;24.04;59.72
81230;BME280;70701;44.452;18.652;2023-06-26T09:58:06;99036.34;;;24.22;58.90
81230;BME280;70701;44.452;18.652;2023-06-26T10:00:32;99042.94;;;24.36;59.05
81230;BME280;70701;44.452;18.652;2023-06-26T10:03:00;99047.34;;;24.37;57.99
81230;BME280;70701;44.452;18.652;2023-06-26T10:05:26;99040.81;;;24.12;59.30
81230;BME280;70701;44.452;18.652;2023-06-26T10:07:53;99033.47;;;23.97;59.31
81230;BME280;70701;44.452;18.652;2023-06-26T10:10:21;99030.72;;;23.86;59.85
81230;BME280;70701;44.452;18.652;2023-06-26T10:12:49;99044.00;;;23.66;60.22
81230;BME280;70701;44.452;18.652;2023-06-26T10:15:17;99041.38;;;23.68;58.07
81230;BME280;70701;44.452;18.652;2023-06-26T10:17:45;99049.72;;;23.61;58.65
81230;BME280;70701;44.452;18.652;2023-06-26T10:20:13;99048.16;;;23.65;59.73
81230;BME280;70701;44.452;18.652;2023-06-26T10:22:44;99056.06;;;23.37;62.06
81230;BME280;70701;44.452;18.652;2023-06-26T10:25:12;99056.94;;;23.20;62.85
81230;BME280;70701;44.452;18.652;2023-06-26T10:27:43;99057.75;;;23.09;63.86
81230;BME280;70701;44.452;18.652;2023-06-26T10:30:14;99053.56;;;23.22;64.12
81230;BME280;70701;44.452;18.652;2023-06-26T10:32:42;99050.34;;;23.42;64.26
81230;BME280;70701;44.452;18.652;2023-06-26T10:35:09;99046.34;;;23.62;63.30
81230;BME280;70701;44.452;18.652;2023-06-26T10:40:09;99036.97;;;23.73;63.14
81230;BME280;70701;44.452;18.652;2023-06-26T10:42:37;99038.59;;;23.63;63.13
81230;BME280;70701;44.452;18.652;2023-06-26T10:45:20;99043.19;;;23.72;60.95
81230;BME280;70701;44.452;18.652;2023-06-26T10:47:52;99040.59;;;24.34;58.17
81230;BME280;70701;44.452;18.652;2023-06-26T10:50:28;99036.81;;;24.26;57.29
81230;BME280;70701;44.452;18.652;2023-06-26T10:55:44;99033.88;;;24.62;58.21
81230;BME280;70701;44.452;18.652;2023-06-26T10:58:33;99028.78;;;24.55;56.64
81230;BME280;70701;44.452;18.652;2023-06-26T11:01:14;99028.81;;;24.49;55.32
81230;BME280;70701;44.452;18.652;2023-06-26T11:03:43;99029.16;;;24.40;55.83
81230;BME280;70701;44.452;18.652;2023-06-26T11:06:14;99022.72;;;24.39;56.34
81230;BME280;70701;44.452;18.652;2023-06-26T11:08:54;99014.41;;;24.41;56.24
81230;BME280;70701;44.452;18.652;2023-06-26T11:14:18;99010.38;;;24.80;55.23
81230;BME280;70701;44.452;18.652;2023-06-26T11:16:44;99006.84;;;24.93;55.25
81230;BME280;70701;44.452;18.652;2023-06-26T11:19:11;99011.34;;;25.08;52.69
81230;BME280;70701;44.452;18.652;2023-06-26T11:21:38;99017.50;;;24.68;52.77
81230;BME280;70701;44.452;18.652;2023-06-26T11:24:05;99015.13;;;24.48;53.07
81230;BME280;70701;44.452;18.652;2023-06-26T11:26:38;99010.19;;;24.54;54.25
81230;BME280;70701;44.452;18.652;2023-06-26T11:29:04;99009.38;;;24.78;53.22
81230;BME280;70701;44.452;18.652;2023-06-26T11:31:31;99002.72;;;24.70;53.42
81230;BME280;70701;44.452;18.652;2023-06-26T11:33:59;98994.91;;;24.76;53.12
81230;BME280;70701;44.452;18.652;2023-06-26T11:36:25;98991.56;;;24.72;53.76
81230;BME280;70701;44.452;18.652;2023-06-26T11:38:59;98990.28;;;24.73;54.22
81230;BME280;70701;44.452;18.652;2023-06-26T11:41:29;98996.38;;;24.82;53.30
81230;BME280;70701;44.452;18.652;2023-06-26T11:43:55;98990.91;;;25.03;51.84
81230;BME280;70701;44.452;18.652;2023-06-26T11:46:22;98996.75;;;25.11;50.26
81230;BME280;70701;44.452;18.652;2023-06-26T11:48:48;98994.06;;;25.00;49.71
81230;BME280;70701;44.452;18.652;2023-06-26T11:51:15;98997.03;;;25.32;49.33
81230;BME280;70701;44.452;18.652;2023-06-26T11:53:42;98999.38;;;25.66;48.83
81230;BME280;70701;44.452;18.652;2023-06-26T11:56:10;98995.84;;;25.41;50.65
81230;BME280;70701;44.452;18.652;2023-06-26T11:58:36;98992.50;;;25.24;50.96
81230;BME280;70701;44.452;18.652;2023-06-26T12:01:02;98995.50;;;25.64;49.57
81230;BME280;70701;44.452;18.652;2023-06-26T12:03:29;98992.47;;;25.42;49.28
81230;BME280;70701;44.452;18.652;2023-06-26T12:05:55;98994.19;;;25.32;50.11
81230;BME280;70701;44.452;18.652;2023-06-26T12:08:21;98987.06;;;25.01;49.44
81230;BME280;70701;44.452;18.652;2023-06-26T12:10:47;98987.91;;;24.96;49.92
81230;BME280;70701;44.452;18.652;2023-06-26T12:13:13;98988.00;;;25.09;49.05
81230;BME280;70701;44.452;18.652;2023-06-26T12:15:38;98988.78;;;25.29;48.81
81230;BME280;70701;44.452;18.652;2023-06-26T12:18:10;98981.88;;;25.56;48.39
81230;BME280;70701;44.452;18.652;2023-06-26T12:20:40;98984.41;;;25.79;48.38
81230;BME280;70701;44.452;18.652;2023-06-26T12:23:12;98983.28;;;25.82;48.54
81230;BME280;70701;44.452;18.652;2023-06-26T12:25:38;98983.16;;;26.07;47.66
81230;BME280;70701;44.452;18.652;2023-06-26T12:28:03;98985.81;;;26.31;46.79
81230;BME280;70701;44.452;18.652;2023-06-26T12:30:40;98983.69;;;26.05;47.82
81230;BME280;70701;44.452;18.652;2023-06-26T12:33:13;98975.94;;;25.73;47.31
81230;BME280;70701;44.452;18.652;2023-06-26T12:35:39;98965.91;;;25.67;48.95
81230;BME280;70701;44.452;18.652;2023-06-26T12:38:07;98973.81;;;25.93;47.53
81230;BME280;70701;44.452;18.652;2023-06-26T12:40:44;98963.38;;;25.95;48.16
81230;BME280;70701;44.452;18.652;2023-06-26T12:43:25;98960.53;;;26.09;48.64
81230;BME280;70701;44.452;18.652;2023-06-26T12:45:57;98971.31;;;26.03;48.15
81230;BME280;70701;44.452;18.652;2023-06-26T12:48:37;98975.81;;;26.11;47.34
81230;BME280;70701;44.452;18.652;2023-06-26T12:51:13;98968.50;;;25.84;49.08
81230;BME280;70701;44.452;18.652;2023-06-26T12:53:40;98964.72;;;25.94;48.99
81230;BME280;70701;44.452;18.652;2023-06-26T12:56:06;98967.78;;;25.96;48.95
81230;BME280;70701;44.452;18.652;2023-06-26T12:58:33;98959.00;;;25.94;49.02
81230;BME280;70701;44.452;18.652;2023-06-26T13:00:59;98957.28;;;25.86;49.69
81230;BME280;70701;44.452;18.652;2023-06-26T13:03:25;98959.84;;;25.89;48.91
81230;BME280;70701;44.452;18.652;2023-06-26T13:05:50;98966.41;;;25.84;48.79